Clarksburg, MD (20871)

9:30 PM EDT on August 27, 2014 (GMT -0400)
Park Ridge | Change Station
CLOSE
Current Station
Personal Weather Station
Location: Clarksburg, MD
Elevation: 623 ft
Nearby Weather Stations

Elev 623 ft 39.25 °N, 77.25 °W | Updated 11 minutes ago

Clear
Clear
74.1 °F
Feels Like 71 °F
N
0.0
Wind Variable Wind from NW

Today
High -- | Low -- °F
--% Chance of Precip.
Yesterday
High -- | Low -- °F
Precip. -- in
6:33 AM 7:47 PM
Waxing Crescent, 5% visible
Pressure 29.98 in
Visibility 10.0 miles
Clouds Clear
Heat Index 71 °F
Dew Point 74 °F
Humidity 98%
Rainfall 0.00 in
Snow Depth Not available.
UV 0 out of 12
Pollen 9.60 out of 12
Air Quality Not available.
Flu Activity Not available.
METAR KGAI 280115Z AUTO 00000KT 10SM CLR 23/20 A2998 RMK AO1

More Conditions Fewer Conditions

Pressure 29.98 in
Visibility 10.0 miles
Clouds Clear
Heat Index 71 °F
Dew Point 74 °F
Humidity 98%
Rainfall 0.00 in
Snow Depth Not available.
UV 0 out of 12
Pollen 9.60 out of 12
Air Quality Not available.
Flu Activity Not available.
METAR KGAI 280115Z AUTO 00000KT 10SM CLR 23/20 A2998 RMK AO1

More Conditions Fewer Conditions

10-Day Weather Forecast

Almanac

Astronomy

Aug. 27, 2014 Rise Set
Actual Time 6:33 AM EDT 7:47 PM EDT
Civil Twilight 6:05 AM EDT 8:15 PM EDT
Nautical Twilight 5:32 AM EDT 8:48 PM EDT
Astronomical Twilight 4:57 AM EDT 9:22 PM EDT
Moon 8:26 AM EDT (8/27) 8:39 PM EDT (8/27)
Length of Visible Light 14h 09m
Length of Day
13h 14m
Tomorrow will be 2m 25s shorter.
Waxing Crescent, 5% of the Moon is Illuminated
Today
Waxing Crescent
Sep 2
First Quarter
Sep 8
Full
Sep 15
Last Quarter
Sep 24
New

Today's Extremes

State Highs State Lows

Community

WunderPhotos

Upload Photos

1,747,848 photos uploaded!

Nearby

Snow Depth

Station Depth Elevation
No new snow has been reported.

Earthquake Activity

City Distance Mag. Time & Date
No recent earthquake activity has been reported nearby.
Minimum magnitude displayed is 2.5.

Coastal Water Temperatures

Place Temperature
Washington, DC 79.0 °F
Baltimore, MD 82.9 °F
Solomons Island, MD 82.0 °F

Nearby Weather Stations